sensor_id;sensor_type;location;lat;lon;timestamp;pressure;altitude;pressure_sealevel;temperature;humidity
59104;BME280;51449;51.676;5.812;2023-03-02T00:01:55;102414.03;;;1.78;56.28
59104;BME280;51449;51.676;5.812;2023-03-02T00:04:27;102401.97;;;1.74;56.99
59104;BME280;51449;51.676;5.812;2023-03-02T00:06:55;102404.91;;;1.73;57.21
59104;BME280;51449;51.676;5.812;2023-03-02T00:09:20;102407.63;;;1.73;57.05
59104;BME280;51449;51.676;5.812;2023-03-02T00:11:42;102409.03;;;1.75;57.49
59104;BME280;51449;51.676;5.812;2023-03-02T00:14:06;102408.94;;;1.82;56.40
59104;BME280;51449;51.676;5.812;2023-03-02T00:16:27;102410.56;;;1.83;57.09
59104;BME280;51449;51.676;5.812;2023-03-02T00:18:49;102397.56;;;1.85;56.48
59104;BME280;51449;51.676;5.812;2023-03-02T00:21:11;102416.16;;;1.88;56.97
59104;BME280;51449;51.676;5.812;2023-03-02T00:23:33;102402.91;;;1.91;56.51
59104;BME280;51449;51.676;5.812;2023-03-02T00:25:54;102403.25;;;1.95;56.43
59104;BME280;51449;51.676;5.812;2023-03-02T00:28:16;102403.59;;;1.99;55.91
59104;BME280;51449;51.676;5.812;2023-03-02T00:30:38;102399.25;;;1.98;56.00
59104;BME280;51449;51.676;5.812;2023-03-02T00:33:00;102401.59;;;1.94;56.49
59104;BME280;51449;51.676;5.812;2023-03-02T00:35:21;102405.41;;;1.93;56.85
59104;BME280;51449;51.676;5.812;2023-03-02T00:37:43;102404.69;;;1.86;57.15
59104;BME280;51449;51.676;5.812;2023-03-02T00:40:07;102403.25;;;1.83;56.70
59104;BME280;51449;51.676;5.812;2023-03-02T00:42:29;102406.44;;;1.80;57.25
59104;BME280;51449;51.676;5.812;2023-03-02T00:44:51;102386.94;;;1.71;57.55
59104;BME280;51449;51.676;5.812;2023-03-02T00:47:13;102389.66;;;1.71;57.64
59104;BME280;51449;51.676;5.812;2023-03-02T00:49:35;102390.97;;;1.69;58.07
59104;BME280;51449;51.676;5.812;2023-03-02T00:51:57;102389.06;;;1.69;57.86
59104;BME280;51449;51.676;5.812;2023-03-02T00:54:18;102388.47;;;1.67;57.92
59104;BME280;51449;51.676;5.812;2023-03-02T00:56:40;102391.19;;;1.67;57.96
59104;BME280;51449;51.676;5.812;2023-03-02T00:59:04;102391.19;;;1.67;57.60
59104;BME280;51449;51.676;5.812;2023-03-02T01:01:27;102394.16;;;1.66;58.29
59104;BME280;51449;51.676;5.812;2023-03-02T01:03:49;102394.63;;;1.63;58.40
59104;BME280;51449;51.676;5.812;2023-03-02T01:06:17;102390.25;;;1.62;58.41
59104;BME280;51449;51.676;5.812;2023-03-02T01:08:40;102391.56;;;1.59;58.03
59104;BME280;51449;51.676;5.812;2023-03-02T01:11:02;102393.06;;;1.55;58.48
59104;BME280;51449;51.676;5.812;2023-03-02T01:13:24;102386.69;;;1.49;58.95
59104;BME280;51449;51.676;5.812;2023-03-02T01:15:45;102396.03;;;1.42;59.60
59104;BME280;51449;51.676;5.812;2023-03-02T01:18:07;102397.19;;;1.34;60.04
59104;BME280;51449;51.676;5.812;2023-03-02T01:20:29;102407.91;;;1.29;60.84
59104;BME280;51449;51.676;5.812;2023-03-02T01:22:50;102397.28;;;1.27;61.10
59104;BME280;51449;51.676;5.812;2023-03-02T01:25:12;102401.28;;;1.25;61.36
59104;BME280;51449;51.676;5.812;2023-03-02T01:27:35;102398.56;;;1.25;61.40
59104;BME280;51449;51.676;5.812;2023-03-02T01:29:57;102398.19;;;1.21;61.15
59104;BME280;51449;51.676;5.812;2023-03-02T01:32:19;102395.34;;;1.16;61.42
59104;BME280;51449;51.676;5.812;2023-03-02T01:34:41;102388.50;;;1.14;61.25
59104;BME280;51449;51.676;5.812;2023-03-02T01:37:03;102391.22;;;1.14;60.76
59104;BME280;51449;51.676;5.812;2023-03-02T01:39:25;102388.16;;;1.10;61.06
59104;BME280;51449;51.676;5.812;2023-03-02T01:41:49;102388.38;;;1.09;61.52
59104;BME280;51449;51.676;5.812;2023-03-02T01:44:52;102380.09;;;1.03;61.96
59104;BME280;51449;51.676;5.812;2023-03-02T01:47:23;102382.22;;;1.01;61.54
59104;BME280;51449;51.676;5.812;2023-03-02T01:50:17;102374.28;;;1.00;60.83
59104;BME280;51449;51.676;5.812;2023-03-02T01:52:45;102375.59;;;0.97;61.46
59104;BME280;51449;51.676;5.812;2023-03-02T01:55:09;102372.53;;;0.94;61.22
59104;BME280;51449;51.676;5.812;2023-03-02T01:57:41;102386.31;;;0.92;61.85
59104;BME280;51449;51.676;5.812;2023-03-02T02:00:07;102377.34;;;0.92;61.59
59104;BME280;51449;51.676;5.812;2023-03-02T02:02:32;102373.59;;;0.93;61.46
59104;BME280;51449;51.676;5.812;2023-03-02T02:04:55;102375.22;;;0.94;61.87
59104;BME280;51449;51.676;5.812;2023-03-02T02:07:17;102373.59;;;0.93;61.92
59104;BME280;51449;51.676;5.812;2023-03-02T02:09:43;102371.44;;;0.95;61.88
59104;BME280;51449;51.676;5.812;2023-03-02T02:12:16;102366.03;;;0.95;61.91
59104;BME280;51449;51.676;5.812;2023-03-02T02:14:41;102366.03;;;0.95;61.69
59104;BME280;51449;51.676;5.812;2023-03-02T02:17:03;102359.78;;;0.94;61.67
59104;BME280;51449;51.676;5.812;2023-03-02T02:20:05;102357.88;;;0.95;62.37
59104;BME280;51449;51.676;5.812;2023-03-02T02:28:19;102352.78;;;0.87;63.71
59104;BME280;51449;51.676;5.812;2023-03-02T02:30:46;102351.97;;;0.86;63.92
59104;BME280;51449;51.676;5.812;2023-03-02T02:33:16;102342.75;;;0.87;64.41
59104;BME280;51449;51.676;5.812;2023-03-02T02:35:45;102347.38;;;0.87;64.16
59104;BME280;51449;51.676;5.812;2023-03-02T02:38:10;102346.28;;;0.88;64.67
59104;BME280;51449;51.676;5.812;2023-03-02T02:43:21;102343.22;;;0.84;65.58
59104;BME280;51449;51.676;5.812;2023-03-02T02:45:45;102344.53;;;0.81;67.81
59104;BME280;51449;51.676;5.812;2023-03-02T02:48:14;102349.72;;;0.83;67.35
59104;BME280;51449;51.676;5.812;2023-03-02T02:50:38;102346.16;;;0.82;67.70
59104;BME280;51449;51.676;5.812;2023-03-02T02:53:05;102350.16;;;0.80;68.60
59104;BME280;51449;51.676;5.812;2023-03-02T02:55:33;102341.22;;;0.79;69.74
59104;BME280;51449;51.676;5.812;2023-03-02T02:57:58;102339.56;;;0.78;70.86
59104;BME280;51449;51.676;5.812;2023-03-02T03:00:23;102342.03;;;0.80;70.96
59104;BME280;51449;51.676;5.812;2023-03-02T03:02:51;102347.84;;;0.83;70.56
59104;BME280;51449;51.676;5.812;2023-03-02T03:05:18;102338.63;;;0.84;71.52
59104;BME280;51449;51.676;5.812;2023-03-02T03:07:40;102334.63;;;0.87;70.72
59104;BME280;51449;51.676;5.812;2023-03-02T03:10:28;102342.66;;;0.94;70.49
59104;BME280;51449;51.676;5.812;2023-03-02T03:13:01;102337.25;;;0.94;70.11
59104;BME280;51449;51.676;5.812;2023-03-02T03:15:22;102341.25;;;0.91;70.67
59104;BME280;51449;51.676;5.812;2023-03-02T03:17:53;102340.66;;;0.89;71.49
59104;BME280;51449;51.676;5.812;2023-03-02T03:20:17;102337.34;;;0.87;71.79
59104;BME280;51449;51.676;5.812;2023-03-02T03:22:40;102336.03;;;0.90;72.10
59104;BME280;51449;51.676;5.812;2023-03-02T03:25:04;102327.31;;;0.88;72.72
59104;BME280;51449;51.676;5.812;2023-03-02T03:27:27;102331.91;;;0.87;72.99
59104;BME280;51449;51.676;5.812;2023-03-02T03:29:49;102338.16;;;0.88;73.17
59104;BME280;51449;51.676;5.812;2023-03-02T03:32:13;102332.50;;;0.89;73.40
59104;BME280;51449;51.676;5.812;2023-03-02T03:34:36;102330.63;;;0.90;73.18
59104;BME280;51449;51.676;5.812;2023-03-02T03:37:11;102330.63;;;0.90;72.96
59104;BME280;51449;51.676;5.812;2023-03-02T03:39:34;102328.16;;;0.88;73.70
59104;BME280;51449;51.676;5.812;2023-03-02T03:41:57;102327.06;;;0.89;73.55
59104;BME280;51449;51.676;5.812;2023-03-02T03:44:20;102323.75;;;0.87;73.37
59104;BME280;51449;51.676;5.812;2023-03-02T03:46:41;102320.59;;;0.90;73.11
59104;BME280;51449;51.676;5.812;2023-03-02T03:49:04;102322.84;;;0.93;73.13
59104;BME280;51449;51.676;5.812;2023-03-02T03:51:27;102319.88;;;0.95;72.64
59104;BME280;51449;51.676;5.812;2023-03-02T03:53:49;102327.47;;;0.93;72.92
59104;BME280;51449;51.676;5.812;2023-03-02T03:56:31;102329.69;;;0.96;73.16
59104;BME280;51449;51.676;5.812;2023-03-02T03:58:55;102321.56;;;0.96;72.91
59104;BME280;51449;51.676;5.812;2023-03-02T04:01:36;102325.91;;;0.97;72.54
59104;BME280;51449;51.676;5.812;2023-03-02T04:04:02;102311.88;;;1.00;72.78
59104;BME280;51449;51.676;5.812;2023-03-02T04:06:25;102320.00;;;1.00;72.67
59104;BME280;51449;51.676;5.812;2023-03-02T04:08:47;102326.03;;;1.02;72.11
59104;BME280;51449;51.676;5.812;2023-03-02T04:11:08;102324.41;;;1.01;72.06
59104;BME280;51449;51.676;5.812;2023-03-02T04:13:30;102323.19;;;0.97;72.88
59104;BME280;51449;51.676;5.812;2023-03-02T04:15:52;102328.41;;;0.98;73.17
59104;BME280;51449;51.676;5.812;2023-03-02T04:18:14;102329.44;;;0.97;73.08
59104;BME280;51449;51.676;5.812;2023-03-02T04:20:35;102329.00;;;1.00;72.28
59104;BME280;51449;51.676;5.812;2023-03-02T04:22:58;102332.53;;;1.01;71.65
59104;BME280;51449;51.676;5.812;2023-03-02T04:25:22;102331.34;;;0.97;71.57
59104;BME280;51449;51.676;5.812;2023-03-02T04:27:50;102328.50;;;0.92;72.09
59104;BME280;51449;51.676;5.812;2023-03-02T04:30:16;102337.13;;;0.89;72.82
59104;BME280;51449;51.676;5.812;2023-03-02T04:32:40;102332.97;;;0.86;72.80
59104;BME280;51449;51.676;5.812;2023-03-02T04:35:02;102336.72;;;0.85;72.44
59104;BME280;51449;51.676;5.812;2023-03-02T04:37:24;102333.44;;;0.83;72.13
59104;BME280;51449;51.676;5.812;2023-03-02T04:39:45;102332.47;;;0.77;72.79
59104;BME280;51449;51.676;5.812;2023-03-02T04:42:11;102339.19;;;0.75;73.20
59104;BME280;51449;51.676;5.812;2023-03-02T04:44:33;102336.47;;;0.75;72.53
59104;BME280;51449;51.676;5.812;2023-03-02T04:46:54;102339.66;;;0.72;72.56
59104;BME280;51449;51.676;5.812;2023-03-02T04:49:17;102339.03;;;0.70;72.72
59104;BME280;51449;51.676;5.812;2023-03-02T04:51:43;102342.56;;;0.70;72.99
59104;BME280;51449;51.676;5.812;2023-03-02T04:54:11;102334.69;;;0.69;72.17
59104;BME280;51449;51.676;5.812;2023-03-02T04:56:44;102339.38;;;0.61;73.63
59104;BME280;51449;51.676;5.812;2023-03-02T04:59:09;102339.59;;;0.60;73.93
59104;BME280;51449;51.676;5.812;2023-03-02T05:01:30;102337.34;;;0.57;74.22
59104;BME280;51449;51.676;5.812;2023-03-02T05:03:52;102325.28;;;0.53;74.66
59104;BME280;51449;51.676;5.812;2023-03-02T05:06:15;102334.50;;;0.52;74.33
59104;BME280;51449;51.676;5.812;2023-03-02T05:08:37;102333.06;;;0.49;74.77
59104;BME280;51449;51.676;5.812;2023-03-02T05:10:59;102330.81;;;0.46;74.91
59104;BME280;51449;51.676;5.812;2023-03-02T05:13:22;102335.66;;;0.44;74.33
59104;BME280;51449;51.676;5.812;2023-03-02T05:15:43;102336.09;;;0.41;74.77
59104;BME280;51449;51.676;5.812;2023-03-02T05:18:07;102333.84;;;0.38;75.48
59104;BME280;51449;51.676;5.812;2023-03-02T05:20:31;102332.63;;;0.34;75.74
59104;BME280;51449;51.676;5.812;2023-03-02T05:22:57;102336.63;;;0.31;76.01
59104;BME280;51449;51.676;5.812;2023-03-02T05:25:21;102334.75;;;0.32;75.74
59104;BME280;51449;51.676;5.812;2023-03-02T05:27:43;102335.81;;;0.31;75.99
59104;BME280;51449;51.676;5.812;2023-03-02T05:30:07;102338.16;;;0.27;76.34
59104;BME280;51449;51.676;5.812;2023-03-02T05:32:29;102333.16;;;0.24;76.53
59104;BME280;51449;51.676;5.812;2023-03-02T05:34:51;102335.44;;;0.27;76.65
59104;BME280;51449;51.676;5.812;2023-03-02T05:37:12;102329.41;;;0.25;76.39
59104;BME280;51449;51.676;5.812;2023-03-02T05:39:34;102330.69;;;0.23;77.02
59104;BME280;51449;51.676;5.812;2023-03-02T05:41:55;102331.59;;;0.16;77.17
59104;BME280;51449;51.676;5.812;2023-03-02T05:44:17;102327.44;;;0.14;77.84
59104;BME280;51449;51.676;5.812;2023-03-02T05:46:39;102324.75;;;0.14;77.49
59104;BME280;51449;51.676;5.812;2023-03-02T05:49:01;102329.13;;;0.15;77.49
59104;BME280;51449;51.676;5.812;2023-03-02T05:51:23;102331.84;;;0.15;77.70
59104;BME280;51449;51.676;5.812;2023-03-02T05:53:44;102327.25;;;0.15;77.02
59104;BME280;51449;51.676;5.812;2023-03-02T05:56:07;102319.72;;;0.17;77.12
59104;BME280;51449;51.676;5.812;2023-03-02T05:58:29;102321.56;;;0.17;77.13
59104;BME280;51449;51.676;5.812;2023-03-02T06:00:51;102322.63;;;0.16;76.98
59104;BME280;51449;51.676;5.812;2023-03-02T06:03:13;102321.44;;;0.12;77.30
59104;BME280;51449;51.676;5.812;2023-03-02T06:05:35;102327.44;;;0.14;77.37
59104;BME280;51449;51.676;5.812;2023-03-02T06:07:57;102318.72;;;0.12;77.11
59104;BME280;51449;51.676;5.812;2023-03-02T06:10:19;102319.78;;;0.11;77.05
59104;BME280;51449;51.676;5.812;2023-03-02T06:12:41;102325.19;;;0.11;77.04
59104;BME280;51449;51.676;5.812;2023-03-02T06:15:04;102320.81;;;0.10;77.22
59104;BME280;51449;51.676;5.812;2023-03-02T06:17:27;102321.28;;;0.07;77.30
59104;BME280;51449;51.676;5.812;2023-03-02T06:19:48;102334.63;;;0.08;77.33
59104;BME280;51449;51.676;5.812;2023-03-02T06:22:10;102335.06;;;0.05;77.23
59104;BME280;51449;51.676;5.812;2023-03-02T06:24:32;102341.78;;;0.03;77.41
59104;BME280;51449;51.676;5.812;2023-03-02T06:26:54;102343.88;;;0.01;77.44
59104;BME280;51449;51.676;5.812;2023-03-02T06:29:16;102341.38;;;-0.01;77.33
59104;BME280;51449;51.676;5.812;2023-03-02T06:31:37;102344.69;;;0.01;77.26
59104;BME280;51449;51.676;5.812;2023-03-02T06:33:59;102347.19;;;0.03;77.28
59104;BME280;51449;51.676;5.812;2023-03-02T06:36:21;102338.81;;;0.04;76.97
59104;BME280;51449;51.676;5.812;2023-03-02T06:38:43;102348.38;;;0.07;77.25
59104;BME280;51449;51.676;5.812;2023-03-02T06:41:04;102344.63;;;0.08;77.00
59104;BME280;51449;51.676;5.812;2023-03-02T06:43:26;102346.28;;;0.09;76.63
59104;BME280;51449;51.676;5.812;2023-03-02T06:45:48;102347.50;;;0.13;76.53
59104;BME280;51449;51.676;5.812;2023-03-02T06:48:11;102344.53;;;0.14;76.38
59104;BME280;51449;51.676;5.812;2023-03-02T06:50:33;102338.06;;;0.15;76.48
59104;BME280;51449;51.676;5.812;2023-03-02T06:52:55;102336.56;;;0.19;76.33
59104;BME280;51449;51.676;5.812;2023-03-02T06:55:17;102341.53;;;0.23;76.40
59104;BME280;51449;51.676;5.812;2023-03-02T06:57:39;102341.06;;;0.26;76.05
59104;BME280;51449;51.676;5.812;2023-03-02T07:00:02;102344.81;;;0.43;75.93
59104;BME280;51449;51.676;5.812;2023-03-02T07:02:30;102356.13;;;0.70;75.17
59104;BME280;51449;51.676;5.812;2023-03-02T07:04:52;102350.16;;;0.80;74.01
59104;BME280;51449;51.676;5.812;2023-03-02T07:07:14;102356.00;;;0.95;73.43
59104;BME280;51449;51.676;5.812;2023-03-02T07:09:35;102353.19;;;1.02;73.41
59104;BME280;51449;51.676;5.812;2023-03-02T07:11:57;102354.50;;;1.11;72.99
59104;BME280;51449;51.676;5.812;2023-03-02T07:14:19;102361.44;;;1.07;73.03
59104;BME280;51449;51.676;5.812;2023-03-02T07:16:41;102355.28;;;1.00;72.95
59104;BME280;51449;51.676;5.812;2023-03-02T07:19:02;102358.94;;;0.94;73.51
59104;BME280;51449;51.676;5.812;2023-03-02T07:21:24;102359.41;;;0.91;73.04
59104;BME280;51449;51.676;5.812;2023-03-02T07:23:46;102367.44;;;0.85;73.37
59104;BME280;51449;51.676;5.812;2023-03-02T07:26:08;102364.47;;;0.87;73.34
59104;BME280;51449;51.676;5.812;2023-03-02T07:28:30;102358.00;;;0.88;73.11
59104;BME280;51449;51.676;5.812;2023-03-02T07:30:52;102358.34;;;0.92;73.34
59104;BME280;51449;51.676;5.812;2023-03-02T07:33:14;102348.91;;;0.94;73.48
59104;BME280;51449;51.676;5.812;2023-03-02T07:35:36;102359.09;;;0.99;72.96
59104;BME280;51449;51.676;5.812;2023-03-02T07:37:58;102356.97;;;1.01;72.72
59104;BME280;51449;51.676;5.812;2023-03-02T07:40:20;102355.75;;;0.97;73.28
59104;BME280;51449;51.676;5.812;2023-03-02T07:42:41;102359.69;;;1.01;72.74
59104;BME280;51449;51.676;5.812;2023-03-02T07:45:04;102354.50;;;1.11;72.86
59104;BME280;51449;51.676;5.812;2023-03-02T07:47:26;102351.44;;;1.19;72.82
59104;BME280;51449;51.676;5.812;2023-03-02T07:49:48;102353.25;;;1.25;72.61
59104;BME280;51449;51.676;5.812;2023-03-02T07:52:10;102354.19;;;1.31;72.56
59104;BME280;51449;51.676;5.812;2023-03-02T07:54:32;102353.88;;;1.39;71.89
59104;BME280;51449;51.676;5.812;2023-03-02T07:56:53;102362.97;;;1.45;72.05
59104;BME280;51449;51.676;5.812;2023-03-02T07:59:15;102358.72;;;1.49;71.69
59104;BME280;51449;51.676;5.812;2023-03-02T08:01:37;102363.41;;;1.54;71.45
59104;BME280;51449;51.676;5.812;2023-03-02T08:03:59;102357.88;;;1.60;71.62
59104;BME280;51449;51.676;5.812;2023-03-02T08:06:21;102366.75;;;1.67;71.16
59104;BME280;51449;51.676;5.812;2023-03-02T08:08:43;102356.25;;;1.71;70.66
59104;BME280;51449;51.676;5.812;2023-03-02T08:11:11;102366.41;;;1.76;70.15
59104;BME280;51449;51.676;5.812;2023-03-02T08:13:37;102366.28;;;1.82;70.59
59104;BME280;51449;51.676;5.812;2023-03-02T08:16:05;102361.31;;;1.91;70.75
59104;BME280;51449;51.676;5.812;2023-03-02T08:18:29;102370.63;;;1.95;69.63
59104;BME280;51449;51.676;5.812;2023-03-02T08:20:51;102358.72;;;1.96;69.51
59104;BME280;51449;51.676;5.812;2023-03-02T08:23:14;102356.22;;;2.06;69.37
59104;BME280;51449;51.676;5.812;2023-03-02T08:25:35;102362.81;;;2.10;69.27
59104;BME280;51449;51.676;5.812;2023-03-02T08:27:58;102358.69;;;2.20;69.22
59104;BME280;51449;51.676;5.812;2023-03-02T08:30:20;102356.50;;;2.33;68.55
59104;BME280;51449;51.676;5.812;2023-03-02T08:32:42;102363.94;;;2.38;68.41
59104;BME280;51449;51.676;5.812;2023-03-02T08:35:04;102358.59;;;2.43;68.41
59104;BME280;51449;51.676;5.812;2023-03-02T08:37:26;102357.75;;;2.54;68.16
59104;BME280;51449;51.676;5.812;2023-03-02T08:39:47;102354.72;;;2.68;67.61
59104;BME280;51449;51.676;5.812;2023-03-02T08:42:09;102362.25;;;2.77;67.75
59104;BME280;51449;51.676;5.812;2023-03-02T08:44:31;102356.34;;;2.81;66.89
59104;BME280;51449;51.676;5.812;2023-03-02T08:46:52;102360.47;;;2.83;66.32
59104;BME280;51449;51.676;5.812;2023-03-02T08:49:15;102353.00;;;2.90;66.64
59104;BME280;51449;51.676;5.812;2023-03-02T08:51:38;102346.56;;;2.96;65.87
59104;BME280;51449;51.676;5.812;2023-03-02T08:54:00;102343.19;;;3.06;65.77
59104;BME280;51449;51.676;5.812;2023-03-02T08:56:31;102342.38;;;3.22;65.69
59104;BME280;51449;51.676;5.812;2023-03-02T08:58:57;102348.81;;;3.33;65.14
59104;BME280;51449;51.676;5.812;2023-03-02T09:01:29;102339.81;;;3.50;64.75
59104;BME280;51449;51.676;5.812;2023-03-02T09:03:54;102339.97;;;3.60;64.44
59104;BME280;51449;51.676;5.812;2023-03-02T09:06:18;102346.97;;;3.73;64.21
59104;BME280;51449;51.676;5.812;2023-03-02T09:08:40;102342.00;;;3.86;64.05
59104;BME280;51449;51.676;5.812;2023-03-02T09:11:02;102344.94;;;4.02;63.80
59104;BME280;51449;51.676;5.812;2023-03-02T09:13:24;102344.31;;;4.17;62.58
59104;BME280;51449;51.676;5.812;2023-03-02T09:15:47;102343.63;;;4.26;61.91
59104;BME280;51449;51.676;5.812;2023-03-02T09:18:08;102342.97;;;4.41;62.31
59104;BME280;51449;51.676;5.812;2023-03-02T09:20:30;102335.16;;;4.50;61.89
59104;BME280;51449;51.676;5.812;2023-03-02T09:22:55;102341.25;;;4.57;60.75
59104;BME280;51449;51.676;5.812;2023-03-02T09:25:18;102344.09;;;4.67;60.29
59104;BME280;51449;51.676;5.812;2023-03-02T09:27:40;102344.72;;;4.75;60.17
59104;BME280;51449;51.676;5.812;2023-03-02T09:30:02;102338.19;;;4.76;60.03
59104;BME280;51449;51.676;5.812;2023-03-02T09:32:24;102338.28;;;4.86;59.79
59104;BME280;51449;51.676;5.812;2023-03-02T09:34:46;102338.34;;;4.91;60.04
59104;BME280;51449;51.676;5.812;2023-03-02T09:37:08;102337.28;;;4.97;60.37
59104;BME280;51449;51.676;5.812;2023-03-02T09:39:29;102352.09;;;5.01;59.45
59104;BME280;51449;51.676;5.812;2023-03-02T09:44:54;102343.94;;;5.06;58.99
59104;BME280;51449;51.676;5.812;2023-03-02T09:50:34;102345.16;;;5.21;58.97
59104;BME280;51449;51.676;5.812;2023-03-02T09:53:20;102335.66;;;5.28;59.68
59104;BME280;51449;51.676;5.812;2023-03-02T09:55:56;102336.84;;;5.38;58.42
59104;BME280;51449;51.676;5.812;2023-03-02T09:58:22;102336.09;;;5.47;58.36
59104;BME280;51449;51.676;5.812;2023-03-02T10:00:49;102331.22;;;5.54;58.23
59104;BME280;51449;51.676;5.812;2023-03-02T10:03:20;102329.91;;;5.62;58.43
59104;BME280;51449;51.676;5.812;2023-03-02T10:05:49;102328.59;;;5.70;57.38
59104;BME280;51449;51.676;5.812;2023-03-02T10:08:23;102333.03;;;5.81;56.90
59104;BME280;51449;51.676;5.812;2023-03-02T10:10:56;102324.38;;;5.94;57.21
59104;BME280;51449;51.676;5.812;2023-03-02T10:21:39;102326.72;;;6.23;55.42
59104;BME280;51449;51.676;5.812;2023-03-02T10:24:25;102328.41;;;6.29;55.93
59104;BME280;51449;51.676;5.812;2023-03-02T10:26:54;102326.50;;;6.35;56.09
59104;BME280;51449;51.676;5.812;2023-03-02T10:32:18;102329.81;;;6.42;55.17
59104;BME280;51449;51.676;5.812;2023-03-02T10:34:44;102325.69;;;6.39;55.41
59104;BME280;51449;51.676;5.812;2023-03-02T10:37:14;102320.78;;;6.47;55.29
59104;BME280;51449;51.676;5.812;2023-03-02T10:39:39;102321.38;;;6.59;54.99
59104;BME280;51449;51.676;5.812;2023-03-02T10:42:06;102320.28;;;6.75;54.59
59104;BME280;51449;51.676;5.812;2023-03-02T10:44:36;102312.09;;;6.85;54.03
59104;BME280;51449;51.676;5.812;2023-03-02T10:47:04;102314.84;;;6.96;53.18
59104;BME280;51449;51.676;5.812;2023-03-02T10:51:55;102320.63;;;7.10;53.30
59104;BME280;51449;51.676;5.812;2023-03-02T10:54:22;102313.22;;;7.15;53.32
59104;BME280;51449;51.676;5.812;2023-03-02T10:56:48;102312.66;;;7.23;52.91
59104;BME280;51449;51.676;5.812;2023-03-02T10:59:40;102316.78;;;7.31;52.66
59104;BME280;51449;51.676;5.812;2023-03-02T11:02:20;102318.97;;;7.34;51.88
59104;BME280;51449;51.676;5.812;2023-03-02T11:04:44;102311.84;;;7.28;51.85
59104;BME280;51449;51.676;5.812;2023-03-02T11:07:17;102308.53;;;7.36;52.04
59104;BME280;51449;51.676;5.812;2023-03-02T11:10:01;102305.25;;;7.44;51.96
59104;BME280;51449;51.676;5.812;2023-03-02T11:12:27;102301.69;;;7.54;51.82
59104;BME280;51449;51.676;5.812;2023-03-02T11:18:00;102297.28;;;7.63;50.79
59104;BME280;51449;51.676;5.812;2023-03-02T11:20:30;102293.44;;;7.64;50.24
59104;BME280;51449;51.676;5.812;2023-03-02T11:23:04;102290.13;;;7.67;49.85
59104;BME280;51449;51.676;5.812;2023-03-02T11:25:56;102296.69;;;7.77;49.22
59104;BME280;51449;51.676;5.812;2023-03-02T11:28:37;102281.59;;;7.79;49.49
59104;BME280;51449;51.676;5.812;2023-03-02T11:31:14;102280.75;;;7.89;49.70
59104;BME280;51449;51.676;5.812;2023-03-02T11:34:07;102285.38;;;7.93;48.15
59104;BME280;51449;51.676;5.812;2023-03-02T11:36:53;102284.00;;;7.96;49.21
59104;BME280;51449;51.676;5.812;2023-03-02T11:39:29;102277.91;;;8.09;48.37
59104;BME280;51449;51.676;5.812;2023-03-02T11:42:24;102270.22;;;8.11;47.94
59104;BME280;51449;51.676;5.812;2023-03-02T11:44:47;102268.56;;;8.15;47.25
59104;BME280;51449;51.676;5.812;2023-03-02T11:47:10;102271.53;;;8.24;47.63
59104;BME280;51449;51.676;5.812;2023-03-02T11:49:43;102266.25;;;8.33;48.10
59104;BME280;51449;51.676;5.812;2023-03-02T11:52:17;102256.91;;;8.44;47.64
59104;BME280;51449;51.676;5.812;2023-03-02T11:54:49;102261.25;;;8.50;46.95
59104;BME280;51449;51.676;5.812;2023-03-02T11:57:20;102261.50;;;8.54;46.56
59104;BME280;51449;51.676;5.812;2023-03-02T11:59:49;102251.53;;;8.63;47.13
59104;BME280;51449;51.676;5.812;2023-03-02T12:02:13;102259.44;;;8.75;46.87
59104;BME280;51449;51.676;5.812;2023-03-02T12:04:37;102255.88;;;8.74;46.23
59104;BME280;51449;51.676;5.812;2023-03-02T12:09:58;102246.28;;;8.72;46.11
59104;BME280;51449;51.676;5.812;2023-03-02T12:12:35;102248.44;;;8.75;45.42
59104;BME280;51449;51.676;5.812;2023-03-02T12:15:03;102245.94;;;8.78;44.32
59104;BME280;51449;51.676;5.812;2023-03-02T12:17:49;102248.16;;;8.76;44.12
59104;BME280;51449;51.676;5.812;2023-03-02T12:20:27;102233.34;;;8.72;44.62
59104;BME280;51449;51.676;5.812;2023-03-02T12:22:50;102233.56;;;8.81;45.22
59104;BME280;51449;51.676;5.812;2023-03-02T12:27:39;102223.88;;;8.89;44.58
59104;BME280;51449;51.676;5.812;2023-03-02T12:30:20;102221.66;;;8.91;43.84
59104;BME280;51449;51.676;5.812;2023-03-02T12:35:32;102217.28;;;9.19;43.58
59104;BME280;51449;51.676;5.812;2023-03-02T12:37:59;102213.91;;;9.27;42.79
59104;BME280;51449;51.676;5.812;2023-03-02T12:40:50;102221.34;;;9.27;43.16
59104;BME280;51449;51.676;5.812;2023-03-02T12:43:34;102207.81;;;9.30;42.59
59104;BME280;51449;51.676;5.812;2023-03-02T12:51:59;102201.53;;;9.54;42.81
59104;BME280;51449;51.676;5.812;2023-03-02T12:54:26;102204.97;;;9.64;42.85
59104;BME280;51449;51.676;5.812;2023-03-02T12:59:49;102191.25;;;9.83;42.97
59104;BME280;51449;51.676;5.812;2023-03-02T13:04:41;102194.91;;;9.98;41.19
59104;BME280;51449;51.676;5.812;2023-03-02T13:07:04;102182.63;;;10.09;41.34
59104;BME280;51449;51.676;5.812;2023-03-02T13:09:26;102184.13;;;10.20;41.24
59104;BME280;51449;51.676;5.812;2023-03-02T13:11:48;102175.75;;;10.31;41.21
59104;BME280;51449;51.676;5.812;2023-03-02T13:14:21;102179.81;;;10.33;41.40
59104;BME280;51449;51.676;5.812;2023-03-02T13:16:57;102177.59;;;10.35;41.09
59104;BME280;51449;51.676;5.812;2023-03-02T13:19:24;102179.63;;;10.30;39.70
59104;BME280;51449;51.676;5.812;2023-03-02T13:21:47;102174.66;;;10.26;39.32
59104;BME280;51449;51.676;5.812;2023-03-02T13:27:07;102162.50;;;10.33;40.51
59104;BME280;51449;51.676;5.812;2023-03-02T13:29:37;102167.31;;;10.41;40.61
59104;BME280;51449;51.676;5.812;2023-03-02T13:32:21;102166.03;;;10.52;40.73
59104;BME280;51449;51.676;5.812;2023-03-02T13:34:59;102164.81;;;10.58;40.70
59104;BME280;51449;51.676;5.812;2023-03-02T13:37:41;102163.63;;;10.64;40.37
59104;BME280;51449;51.676;5.812;2023-03-02T13:40:36;102159.97;;;10.69;39.85
59104;BME280;51449;51.676;5.812;2023-03-02T13:42:59;102167.19;;;10.65;39.80
59104;BME280;51449;51.676;5.812;2023-03-02T13:45:27;102163.50;;;10.56;39.73
59104;BME280;51449;51.676;5.812;2023-03-02T13:47:51;102154.94;;;10.57;39.80